sensor_id;sensor_type;location;lat;lon;timestamp;temperature;humidity
43528;DHT22;52359;42.658;23.320;2023-05-23T04:56:25;12.20;99.90
43528;DHT22;52359;42.658;23.320;2023-05-23T04:58:53;12.20;99.90
43528;DHT22;52359;42.658;23.320;2023-05-23T05:01:18;12.20;99.90
43528;DHT22;52359;42.658;23.320;2023-05-23T05:03:44;12.30;99.90
43528;DHT22;52359;42.658;23.320;2023-05-23T05:06:10;12.20;99.90
43528;DHT22;52359;42.658;23.320;2023-05-23T05:08:35;12.20;99.90
43528;DHT22;52359;42.658;23.320;2023-05-23T05:11:01;12.20;99.90
43528;DHT22;52359;42.658;23.320;2023-05-23T05:13:27;12.30;99.90
43528;DHT22;52359;42.658;23.320;2023-05-23T05:15:53;12.30;99.90
43528;DHT22;52359;42.658;23.320;2023-05-23T05:18:18;12.30;99.90
43528;DHT22;52359;42.658;23.320;2023-05-23T05:20:44;12.30;99.90
43528;DHT22;52359;42.658;23.320;2023-05-23T05:23:09;12.40;99.90
43528;DHT22;52359;42.658;23.320;2023-05-23T05:25:35;12.60;99.90
43528;DHT22;52359;42.658;23.320;2023-05-23T05:28:03;12.70;99.90
43528;DHT22;52359;42.658;23.320;2023-05-23T05:30:31;12.80;99.90
43528;DHT22;52359;42.658;23.320;2023-05-23T05:32:59;12.90;99.90
43528;DHT22;52359;42.658;23.320;2023-05-23T05:40:18;12.50;99.90
43528;DHT22;52359;42.658;23.320;2023-05-23T05:42:44;12.50;99.90
43528;DHT22;52359;42.658;23.320;2023-05-23T05:45:10;12.70;99.90
43528;DHT22;52359;42.658;23.320;2023-05-23T06:33:54;14.10;99.90
43528;DHT22;52359;42.658;23.320;2023-05-23T06:36:20;14.00;99.90
43528;DHT22;52359;42.658;23.320;2023-05-23T06:38:46;14.00;99.90
43528;DHT22;52359;42.658;23.320;2023-05-23T06:41:12;14.20;99.90
43528;DHT22;52359;42.658;23.320;2023-05-23T06:43:37;14.20;99.90
43528;DHT22;52359;42.658;23.320;2023-05-23T06:46:03;14.30;99.90
43528;DHT22;52359;42.658;23.320;2023-05-23T06:48:29;14.30;99.90
43528;DHT22;52359;42.658;23.320;2023-05-23T07:56:43;17.40;99.90
43528;DHT22;52359;42.658;23.320;2023-05-23T08:08:54;18.50;99.90
43528;DHT22;52359;42.658;23.320;2023-05-23T08:11:19;18.60;99.90
43528;DHT22;52359;42.658;23.320;2023-05-23T08:13:45;18.70;99.90
43528;DHT22;52359;42.658;23.320;2023-05-23T08:33:13;19.90;99.90
43528;DHT22;52359;42.658;23.320;2023-05-23T08:35:39;19.70;99.90
43528;DHT22;52359;42.658;23.320;2023-05-23T08:38:06;19.60;99.90
43528;DHT22;52359;42.658;23.320;2023-05-23T08:40:33;19.60;99.90
43528;DHT22;52359;42.658;23.320;2023-05-23T08:43:00;19.80;99.90
43528;DHT22;52359;42.658;23.320;2023-05-23T08:45:26;19.70;99.90
43528;DHT22;52359;42.658;23.320;2023-05-23T08:47:54;19.90;99.90
43528;DHT22;52359;42.658;23.320;2023-05-23T08:50:20;20.10;99.90
43528;DHT22;52359;42.658;23.320;2023-05-23T08:52:52;20.30;99.90
43528;DHT22;52359;42.658;23.320;2023-05-23T08:55:19;20.60;99.90
43528;DHT22;52359;42.658;23.320;2023-05-23T08:57:45;20.90;99.90
43528;DHT22;52359;42.658;23.320;2023-05-23T09:00:11;20.90;99.90
43528;DHT22;52359;42.658;23.320;2023-05-23T09:02:42;21.00;99.90
43528;DHT22;52359;42.658;23.320;2023-05-23T09:05:08;20.80;99.90
43528;DHT22;52359;42.658;23.320;2023-05-23T11:22:52;24.80;91.90
43528;DHT22;52359;42.658;23.320;2023-05-23T11:25:19;24.80;92.20
43528;DHT22;52359;42.658;23.320;2023-05-23T11:27:48;24.50;92.90
43528;DHT22;52359;42.658;23.320;2023-05-23T11:30:16;24.60;91.40
43528;DHT22;52359;42.658;23.320;2023-05-23T11:32:52;24.60;91.50
43528;DHT22;52359;42.658;23.320;2023-05-23T11:35:19;24.90;92.40
43528;DHT22;52359;42.658;23.320;2023-05-23T11:37:45;25.20;91.90
43528;DHT22;52359;42.658;23.320;2023-05-23T11:40:34;25.10;91.70
43528;DHT22;52359;42.658;23.320;2023-05-23T11:43:02;25.70;93.90
43528;DHT22;52359;42.658;23.320;2023-05-23T11:45:28;25.30;92.60
43528;DHT22;52359;42.658;23.320;2023-05-23T11:47:56;25.00;91.20
43528;DHT22;52359;42.658;23.320;2023-05-23T11:50:22;25.30;91.70
43528;DHT22;52359;42.658;23.320;2023-05-23T12:05:09;25.10;93.50
43528;DHT22;52359;42.658;23.320;2023-05-23T12:07:39;25.40;93.10
43528;DHT22;52359;42.658;23.320;2023-05-23T12:10:05;25.40;92.50
43528;DHT22;52359;42.658;23.320;2023-05-23T12:12:31;25.30;93.10
43528;DHT22;52359;42.658;23.320;2023-05-23T12:14:57;25.40;92.00
43528;DHT22;52359;42.658;23.320;2023-05-23T12:17:23;25.10;92.40
43528;DHT22;52359;42.658;23.320;2023-05-23T12:19:49;25.20;91.90
43528;DHT22;52359;42.658;23.320;2023-05-23T12:22:24;25.10;90.20
43528;DHT22;52359;42.658;23.320;2023-05-23T12:24:54;24.90;92.30
43528;DHT22;52359;42.658;23.320;2023-05-23T12:27:26;25.30;92.20
43528;DHT22;52359;42.658;23.320;2023-05-23T12:30:07;25.50;92.40
43528;DHT22;52359;42.658;23.320;2023-05-23T12:32:40;25.70;91.70
43528;DHT22;52359;42.658;23.320;2023-05-23T12:35:10;25.80;92.00
43528;DHT22;52359;42.658;23.320;2023-05-23T12:37:45;25.40;91.80
43528;DHT22;52359;42.658;23.320;2023-05-23T12:40:17;25.30;91.10
43528;DHT22;52359;42.658;23.320;2023-05-23T12:42:50;25.00;90.70
43528;DHT22;52359;42.658;23.320;2023-05-23T12:45:23;25.00;90.90
43528;DHT22;52359;42.658;23.320;2023-05-23T12:47:49;25.60;91.20
43528;DHT22;52359;42.658;23.320;2023-05-23T12:50:14;25.90;91.70
43528;DHT22;52359;42.658;23.320;2023-05-23T12:52:40;25.90;92.20
43528;DHT22;52359;42.658;23.320;2023-05-23T12:55:07;26.20;91.40
43528;DHT22;52359;42.658;23.320;2023-05-23T12:57:34;26.50;91.20
43528;DHT22;52359;42.658;23.320;2023-05-23T13:00:00;25.90;90.20
43528;DHT22;52359;42.658;23.320;2023-05-23T13:02:27;25.60;89.70
43528;DHT22;52359;42.658;23.320;2023-05-23T13:04:53;25.90;90.90
43528;DHT22;52359;42.658;23.320;2023-05-23T13:07:19;26.40;89.90
43528;DHT22;52359;42.658;23.320;2023-05-23T13:09:44;26.60;88.20
43528;DHT22;52359;42.658;23.320;2023-05-23T13:12:10;26.10;85.40
43528;DHT22;52359;42.658;23.320;2023-05-23T13:14:36;26.20;84.90
43528;DHT22;52359;42.658;23.320;2023-05-23T13:17:02;25.90;87.10
43528;DHT22;52359;42.658;23.320;2023-05-23T13:19:28;26.50;87.30
43528;DHT22;52359;42.658;23.320;2023-05-23T13:24:21;25.90;86.30
43528;DHT22;52359;42.658;23.320;2023-05-23T13:26:47;25.70;85.10
43528;DHT22;52359;42.658;23.320;2023-05-23T13:29:13;26.00;84.60
43528;DHT22;52359;42.658;23.320;2023-05-23T13:31:38;26.20;83.70
43528;DHT22;52359;42.658;23.320;2023-05-23T13:34:04;26.10;84.60
43528;DHT22;52359;42.658;23.320;2023-05-23T13:36:29;25.90;82.30
43528;DHT22;52359;42.658;23.320;2023-05-23T13:38:56;26.20;84.40
43528;DHT22;52359;42.658;23.320;2023-05-23T13:41:22;26.00;85.70
43528;DHT22;52359;42.658;23.320;2023-05-23T13:43:50;25.50;87.30
43528;DHT22;52359;42.658;23.320;2023-05-23T13:46:16;26.00;88.30
43528;DHT22;52359;42.658;23.320;2023-05-23T13:48:41;26.20;88.80
43528;DHT22;52359;42.658;23.320;2023-05-23T13:53:33;26.00;84.60
43528;DHT22;52359;42.658;23.320;2023-05-23T13:55:59;26.10;85.50
43528;DHT22;52359;42.658;23.320;2023-05-23T13:58:25;25.80;83.80
43528;DHT22;52359;42.658;23.320;2023-05-23T14:00:51;25.80;85.40
43528;DHT22;52359;42.658;23.320;2023-05-23T14:03:16;25.80;86.80
43528;DHT22;52359;42.658;23.320;2023-05-23T14:05:43;25.60;85.80
43528;DHT22;52359;42.658;23.320;2023-05-23T14:08:09;25.60;87.00
43528;DHT22;52359;42.658;23.320;2023-05-23T14:10:39;25.40;85.80
43528;DHT22;52359;42.658;23.320;2023-05-23T14:13:07;25.40;85.10
43528;DHT22;52359;42.658;23.320;2023-05-23T14:15:33;25.50;83.30
43528;DHT22;52359;42.658;23.320;2023-05-23T14:17:59;25.20;86.10
43528;DHT22;52359;42.658;23.320;2023-05-23T14:20:24;25.20;86.20
43528;DHT22;52359;42.658;23.320;2023-05-23T14:22:50;25.10;87.00
43528;DHT22;52359;42.658;23.320;2023-05-23T14:25:17;25.20;87.60
43528;DHT22;52359;42.658;23.320;2023-05-23T14:27:43;25.30;85.80
43528;DHT22;52359;42.658;23.320;2023-05-23T14:30:09;25.20;84.80
43528;DHT22;52359;42.658;23.320;2023-05-23T14:32:35;25.20;84.40
43528;DHT22;52359;42.658;23.320;2023-05-23T14:35:04;25.10;83.50
43528;DHT22;52359;42.658;23.320;2023-05-23T14:37:30;24.80;83.20
43528;DHT22;52359;42.658;23.320;2023-05-23T14:39:56;24.60;84.10
43528;DHT22;52359;42.658;23.320;2023-05-23T14:42:22;24.80;85.50
43528;DHT22;52359;42.658;23.320;2023-05-23T14:44:48;24.80;83.40
43528;DHT22;52359;42.658;23.320;2023-05-23T14:47:13;24.50;81.60
43528;DHT22;52359;42.658;23.320;2023-05-23T14:49:39;24.40;82.70
43528;DHT22;52359;42.658;23.320;2023-05-23T14:52:05;24.20;88.80
43528;DHT22;52359;42.658;23.320;2023-05-23T14:54:30;24.50;91.70
43528;DHT22;52359;42.658;23.320;2023-05-23T14:56:56;24.40;91.50
43528;DHT22;52359;42.658;23.320;2023-05-23T14:59:22;24.20;91.30
43528;DHT22;52359;42.658;23.320;2023-05-23T15:01:48;24.30;91.20
43528;DHT22;52359;42.658;23.320;2023-05-23T15:04:13;24.30;91.60
43528;DHT22;52359;42.658;23.320;2023-05-23T15:06:40;24.30;91.10
43528;DHT22;52359;42.658;23.320;2023-05-23T15:09:05;24.00;88.00
43528;DHT22;52359;42.658;23.320;2023-05-23T15:11:32;23.90;83.50
43528;DHT22;52359;42.658;23.320;2023-05-23T15:13:59;24.00;84.70
43528;DHT22;52359;42.658;23.320;2023-05-23T15:16:25;24.10;83.20
43528;DHT22;52359;42.658;23.320;2023-05-23T15:18:51;23.90;80.60
43528;DHT22;52359;42.658;23.320;2023-05-23T15:21:16;23.70;80.60
43528;DHT22;52359;42.658;23.320;2023-05-23T15:23:42;23.70;79.50
43528;DHT22;52359;42.658;23.320;2023-05-23T15:26:08;23.70;79.60
43528;DHT22;52359;42.658;23.320;2023-05-23T15:28:33;23.80;84.40
43528;DHT22;52359;42.658;23.320;2023-05-23T15:30:59;23.90;86.80
43528;DHT22;52359;42.658;23.320;2023-05-23T15:33:25;23.80;83.00
43528;DHT22;52359;42.658;23.320;2023-05-23T15:35:50;23.70;81.40
43528;DHT22;52359;42.658;23.320;2023-05-23T15:38:17;23.60;79.70
43528;DHT22;52359;42.658;23.320;2023-05-23T15:40:42;23.40;80.10
43528;DHT22;52359;42.658;23.320;2023-05-23T15:43:08;23.60;83.80
43528;DHT22;52359;42.658;23.320;2023-05-23T15:45:34;23.50;84.90
43528;DHT22;52359;42.658;23.320;2023-05-23T15:47:59;23.60;86.80
43528;DHT22;52359;42.658;23.320;2023-05-23T15:50:25;23.60;86.20
43528;DHT22;52359;42.658;23.320;2023-05-23T15:52:51;23.50;86.60
43528;DHT22;52359;42.658;23.320;2023-05-23T15:55:16;23.40;91.40
43528;DHT22;52359;42.658;23.320;2023-05-23T15:57:42;23.40;88.20
43528;DHT22;52359;42.658;23.320;2023-05-23T16:00:08;23.30;89.40
43528;DHT22;52359;42.658;23.320;2023-05-23T16:02:34;23.20;86.00
43528;DHT22;52359;42.658;23.320;2023-05-23T16:04:59;23.20;84.70
43528;DHT22;52359;42.658;23.320;2023-05-23T16:07:25;22.90;81.40
43528;DHT22;52359;42.658;23.320;2023-05-23T16:09:51;22.90;82.70
43528;DHT22;52359;42.658;23.320;2023-05-23T16:12:16;22.80;81.60
43528;DHT22;52359;42.658;23.320;2023-05-23T16:14:42;22.80;83.30
43528;DHT22;52359;42.658;23.320;2023-05-23T16:17:07;22.70;83.50
43528;DHT22;52359;42.658;23.320;2023-05-23T16:19:33;22.80;84.10
43528;DHT22;52359;42.658;23.320;2023-05-23T16:21:59;22.70;85.30
43528;DHT22;52359;42.658;23.320;2023-05-23T16:24:24;22.80;84.80
43528;DHT22;52359;42.658;23.320;2023-05-23T16:26:52;22.80;85.80
43528;DHT22;52359;42.658;23.320;2023-05-23T16:29:18;22.90;86.50
43528;DHT22;52359;42.658;23.320;2023-05-23T16:31:43;22.80;85.50
43528;DHT22;52359;42.658;23.320;2023-05-23T16:34:09;22.70;86.10
43528;DHT22;52359;42.658;23.320;2023-05-23T16:36:35;22.60;87.20
43528;DHT22;52359;42.658;23.320;2023-05-23T16:39:01;22.60;88.40
43528;DHT22;52359;42.658;23.320;2023-05-23T16:41:27;22.60;92.80
43528;DHT22;52359;42.658;23.320;2023-05-23T16:43:53;22.60;89.60
43528;DHT22;52359;42.658;23.320;2023-05-23T16:46:18;22.50;87.80
43528;DHT22;52359;42.658;23.320;2023-05-23T16:48:46;22.60;88.70
43528;DHT22;52359;42.658;23.320;2023-05-23T16:51:12;22.40;88.80
43528;DHT22;52359;42.658;23.320;2023-05-23T17:35:17;21.20;91.80
43528;DHT22;52359;42.658;23.320;2023-05-23T17:37:43;21.30;91.90
43528;DHT22;52359;42.658;23.320;2023-05-23T17:40:10;21.20;91.80
43528;DHT22;52359;42.658;23.320;2023-05-23T18:59:46;17.90;99.90
43528;DHT22;52359;42.658;23.320;2023-05-23T19:02:12;17.90;99.90
43528;DHT22;52359;42.658;23.320;2023-05-23T19:04:38;17.60;99.90
43528;DHT22;52359;42.658;23.320;2023-05-23T19:07:04;17.40;99.90
43528;DHT22;52359;42.658;23.320;2023-05-23T19:09:30;17.60;99.90
43528;DHT22;52359;42.658;23.320;2023-05-23T19:11:56;17.90;99.90
43528;DHT22;52359;42.658;23.320;2023-05-23T19:14:22;17.90;99.90
43528;DHT22;52359;42.658;23.320;2023-05-23T19:16:48;17.90;99.90
43528;DHT22;52359;42.658;23.320;2023-05-23T19:19:14;17.40;99.90
43528;DHT22;52359;42.658;23.320;2023-05-23T19:21:40;17.00;99.90
43528;DHT22;52359;42.658;23.320;2023-05-23T19:24:06;16.80;99.90
43528;DHT22;52359;42.658;23.320;2023-05-23T19:26:32;16.90;99.90
43528;DHT22;52359;42.658;23.320;2023-05-23T19:28:58;17.20;99.90
43528;DHT22;52359;42.658;23.320;2023-05-23T19:31:24;17.50;99.90
43528;DHT22;52359;42.658;23.320;2023-05-23T19:33:50;17.30;99.90
43528;DHT22;52359;42.658;23.320;2023-05-23T19:36:15;17.50;99.90
43528;DHT22;52359;42.658;23.320;2023-05-23T19:38:41;17.50;99.90
43528;DHT22;52359;42.658;23.320;2023-05-23T19:41:06;17.40;99.90
43528;DHT22;52359;42.658;23.320;2023-05-23T19:43:33;16.90;99.90
43528;DHT22;52359;42.658;23.320;2023-05-23T19:45:58;16.80;99.90
43528;DHT22;52359;42.658;23.320;2023-05-23T19:48:24;16.90;99.90
43528;DHT22;52359;42.658;23.320;2023-05-23T19:50:49;16.70;99.90
43528;DHT22;52359;42.658;23.320;2023-05-23T19:53:15;16.30;99.90
43528;DHT22;52359;42.658;23.320;2023-05-23T19:55:41;16.30;99.90
43528;DHT22;52359;42.658;23.320;2023-05-23T19:58:07;16.20;99.90
43528;DHT22;52359;42.658;23.320;2023-05-23T20:00:32;16.20;99.90
43528;DHT22;52359;42.658;23.320;2023-05-23T20:02:58;16.50;99.90
43528;DHT22;52359;42.658;23.320;2023-05-23T20:05:24;16.10;99.90
43528;DHT22;52359;42.658;23.320;2023-05-23T20:07:50;16.00;99.90
43528;DHT22;52359;42.658;23.320;2023-05-23T20:10:16;16.20;99.90
43528;DHT22;52359;42.658;23.320;2023-05-23T20:12:42;16.40;99.90
43528;DHT22;52359;42.658;23.320;2023-05-23T20:15:08;16.50;99.90
43528;DHT22;52359;42.658;23.320;2023-05-23T20:17:34;16.40;99.90
43528;DHT22;52359;42.658;23.320;2023-05-23T20:19:59;16.30;99.90
43528;DHT22;52359;42.658;23.320;2023-05-23T20:22:26;16.10;99.90
43528;DHT22;52359;42.658;23.320;2023-05-23T20:24:52;15.90;99.90
43528;DHT22;52359;42.658;23.320;2023-05-23T20:27:18;15.80;99.90
43528;DHT22;52359;42.658;23.320;2023-05-23T20:29:43;15.90;99.90
43528;DHT22;52359;42.658;23.320;2023-05-23T20:32:09;15.90;99.90
43528;DHT22;52359;42.658;23.320;2023-05-23T20:34:35;16.00;99.90
43528;DHT22;52359;42.658;23.320;2023-05-23T20:37:01;16.00;99.90
43528;DHT22;52359;42.658;23.320;2023-05-23T20:39:28;15.80;99.90
43528;DHT22;52359;42.658;23.320;2023-05-23T20:41:54;15.70;99.90
43528;DHT22;52359;42.658;23.320;2023-05-23T20:44:19;15.60;99.90
43528;DHT22;52359;42.658;23.320;2023-05-23T20:46:45;15.40;99.90
43528;DHT22;52359;42.658;23.320;2023-05-23T20:49:11;15.20;99.90
43528;DHT22;52359;42.658;23.320;2023-05-23T20:51:38;15.10;99.90
43528;DHT22;52359;42.658;23.320;2023-05-23T20:54:04;15.10;99.90
43528;DHT22;52359;42.658;23.320;2023-05-23T20:56:31;15.20;99.90
43528;DHT22;52359;42.658;23.320;2023-05-23T20:58:57;15.30;99.90
43528;DHT22;52359;42.658;23.320;2023-05-23T21:01:26;15.40;99.90
43528;DHT22;52359;42.658;23.320;2023-05-23T21:03:52;15.40;99.90
43528;DHT22;52359;42.658;23.320;2023-05-23T21:06:18;15.40;99.90
43528;DHT22;52359;42.658;23.320;2023-05-23T21:08:44;15.20;99.90
43528;DHT22;52359;42.658;23.320;2023-05-23T21:11:09;15.10;99.90
43528;DHT22;52359;42.658;23.320;2023-05-23T21:13:35;15.00;99.90
43528;DHT22;52359;42.658;23.320;2023-05-23T21:16:02;14.90;99.90
43528;DHT22;52359;42.658;23.320;2023-05-23T21:18:27;14.90;99.90
43528;DHT22;52359;42.658;23.320;2023-05-23T21:20:53;14.70;99.90
43528;DHT22;52359;42.658;23.320;2023-05-23T21:23:18;14.70;99.90
43528;DHT22;52359;42.658;23.320;2023-05-23T21:25:44;14.80;99.90
43528;DHT22;52359;42.658;23.320;2023-05-23T21:28:10;14.50;99.90
43528;DHT22;52359;42.658;23.320;2023-05-23T21:30:35;14.50;99.90
43528;DHT22;52359;42.658;23.320;2023-05-23T21:33:01;14.20;99.90
43528;DHT22;52359;42.658;23.320;2023-05-23T21:35:27;14.20;99.90
43528;DHT22;52359;42.658;23.320;2023-05-23T21:37:52;14.10;99.90
